Time;durP1;ratioP1;P1;durP2;ratioP2;P2;SDS_P1;SDS_P2;PMS_P1;PMS_P2;Temp;Humidity;BMP_temperature;BMP_pressure;BME280_temperature;BME280_humidity;BME280_pressure;Samples;Min_cycle;Max_cycle;Signal;HPM_P1;HPM_P2
2020/12/12 00:00:23;;;;;;;53.83;26.27;;;2.70;98.30;;;;;;5053720;28;20021;-86
2020/12/12 00:02:49;;;;;;;50.90;25.42;;;2.70;98.30;;;;;;5053535;28;20108;-82
2020/12/12 00:05:15;;;;;;;52.70;27.20;;;2.70;98.10;;;;;;5053457;28;20025;-82
2020/12/12 00:07:41;;;;;;;49.70;25.75;;;2.70;98.00;;;;;;5053395;28;20531;-84
2020/12/12 00:10:06;;;;;;;46.58;24.95;;;2.70;98.20;;;;;;5053484;28;20044;-82
2020/12/12 00:12:32;;;;;;;50.17;27.08;;;2.60;98.20;;;;;;5053302;28;20037;-82
2020/12/12 00:14:58;;;;;;;51.45;27.23;;;3.10;98.40;;;;;;5053338;28;20199;-83
2020/12/12 00:17:23;;;;;;;50.10;25.00;;;2.70;98.10;;;;;;5053476;28;20086;-82
2020/12/12 00:19:49;;;;;;;55.65;27.52;;;2.70;98.20;;;;;;5053472;28;20031;-83
2020/12/12 00:22:15;;;;;;;52.08;26.80;;;2.60;98.40;;;;;;5054516;28;20053;-83
2020/12/12 00:24:40;;;;;;;53.38;26.63;;;2.70;98.40;;;;;;5053012;28;20033;-83
2020/12/12 00:27:06;;;;;;;48.65;24.55;;;2.70;98.10;;;;;;5054449;28;20484;-86
2020/12/12 00:29:32;;;;;;;49.80;26.23;;;2.70;98.10;;;;;;5054381;28;20436;-84
2020/12/12 00:31:58;;;;;;;51.75;25.35;;;2.70;98.00;;;;;;5053366;28;20020;-83
2020/12/12 00:34:25;;;;;;;55.00;27.65;;;2.80;97.90;;;;;;5053011;28;20477;-85
2020/12/12 00:36:51;;;;;;;53.90;27.38;;;2.70;98.00;;;;;;5052988;28;20028;-83
2020/12/12 00:39:18;;;;;;;54.55;26.25;;;2.60;98.20;;;;;;5053059;28;20037;-83
2020/12/12 00:41:44;;;;;;;53.38;27.00;;;2.70;98.20;;;;;;5053161;28;20068;-83
2020/12/12 00:44:10;;;;;;;47.80;25.27;;;2.80;98.20;;;;;;5052936;28;20094;-83
2020/12/12 00:46:37;;;;;;;52.88;28.10;;;2.70;98.00;;;;;;5052744;28;20480;-84
2020/12/12 00:49:07;;;;;;;47.13;24.08;;;2.70;98.20;;;;;;5054081;28;20041;-84
2020/12/12 00:51:32;;;;;;;54.78;26.38;;;2.70;98.00;;;;;;5053107;28;20025;-83
2020/12/12 00:53:59;;;;;;;49.92;25.83;;;2.70;98.00;;;;;;5052898;28;20039;-83
2020/12/12 00:56:24;;;;;;;53.55;26.08;;;2.80;98.10;;;;;;5053017;28;20064;-82
2020/12/12 00:58:50;;;;;;;47.22;25.90;;;2.70;97.90;;;;;;5052897;28;20072;-85
2020/12/12 01:01:16;;;;;;;43.15;23.73;;;2.80;97.50;;;;;;5052852;28;20077;-84
2020/12/12 01:03:43;;;;;;;48.58;25.85;;;2.80;97.60;;;;;;5052626;28;20029;-82
2020/12/12 01:06:13;;;;;;;54.45;26.63;;;2.80;97.60;;;;;;5052725;28;20033;-82
2020/12/12 01:08:40;;;;;;;46.92;24.50;;;2.80;97.50;;;;;;5052786;28;20040;-82
2020/12/12 01:11:07;;;;;;;48.53;24.95;;;2.90;97.60;;;;;;5052537;28;20033;-82
2020/12/12 01:13:33;;;;;;;43.83;24.48;;;2.80;97.70;;;;;;5052577;28;20462;-82
2020/12/12 01:15:59;;;;;;;51.33;26.40;;;2.80;97.70;;;;;;5052765;28;20029;-81
2020/12/12 01:18:25;;;;;;;43.92;24.10;;;2.80;97.70;;;;;;5052292;28;20044;-82
2020/12/12 01:20:50;;;;;;;46.50;24.40;;;2.80;97.70;;;;;;5052587;28;20021;-82
2020/12/12 01:23:16;;;;;;;45.90;25.25;;;2.80;97.60;;;;;;5052646;28;20036;-81
2020/12/12 01:25:42;;;;;;;43.70;24.15;;;2.90;97.50;;;;;;5052471;28;20021;-81
2020/12/12 01:28:08;;;;;;;40.45;22.95;;;2.80;97.40;;;;;;5052540;28;20039;-82
2020/12/12 01:30:34;;;;;;;41.60;23.95;;;2.90;97.40;;;;;;5052501;28;20461;-82
2020/12/12 01:33:00;;;;;;;46.05;24.52;;;3.10;97.10;;;;;;5052717;28;20086;-83
2020/12/12 01:35:25;;;;;;;42.50;24.80;;;2.80;97.10;;;;;;5052699;28;20025;-84
2020/12/12 01:37:51;;;;;;;44.60;24.88;;;2.90;97.40;;;;;;5053429;28;20040;-82
2020/12/12 01:40:17;;;;;;;42.33;22.92;;;2.80;97.40;;;;;;5052610;28;20029;-81
2020/12/12 01:42:42;;;;;;;44.22;24.27;;;2.80;97.30;;;;;;5052766;28;20029;-82
2020/12/12 01:45:08;;;;;;;39.42;23.80;;;2.80;97.30;;;;;;5052487;28;20033;-82
2020/12/12 01:47:36;;;;;;;43.65;24.13;;;2.80;97.40;;;;;;5052547;28;20025;-82
2020/12/12 01:50:03;;;;;;;44.83;23.63;;;2.80;97.40;;;;;;5052361;28;20029;-82
2020/12/12 01:52:29;;;;;;;43.30;22.95;;;2.80;97.30;;;;;;5052627;28;20025;-82
2020/12/12 01:54:54;;;;;;;43.40;23.38;;;2.90;97.20;;;;;;5052336;28;20494;-83
2020/12/12 01:57:22;;;;;;;41.88;23.65;;;2.80;97.30;;;;;;5056023;28;20415;-82
2020/12/12 01:59:49;;;;;;;43.33;23.25;;;3.00;97.20;;;;;;5055883;28;20029;-82
2020/12/12 02:02:18;;;;;;;44.47;23.65;;;2.80;97.20;;;;;;5055775;28;20021;-84
2020/12/12 02:04:48;;;;;;;42.15;24.50;;;2.80;97.30;;;;;;5056053;28;20040;-82
2020/12/12 02:07:15;;;;;;;42.33;24.77;;;2.80;97.40;;;;;;5056158;28;20036;-82
2020/12/12 02:09:42;;;;;;;48.17;25.77;;;2.80;97.50;;;;;;5056732;28;20032;-82
2020/12/12 02:12:08;;;;;;;42.58;23.77;;;2.70;97.50;;;;;;5056829;28;20036;-83
2020/12/12 02:14:37;;;;;;;40.08;22.27;;;2.70;97.60;;;;;;5055693;28;20060;-82
2020/12/12 02:17:05;;;;;;;40.88;22.85;;;2.80;97.30;;;;;;5055472;28;20090;-82
2020/12/12 02:19:30;;;;;;;38.70;21.92;;;2.80;97.40;;;;;;5055354;28;20044;-83
2020/12/12 02:21:57;;;;;;;41.08;22.95;;;2.80;96.90;;;;;;5055185;28;20026;-83
2020/12/12 02:24:23;;;;;;;38.53;22.33;;;2.80;97.10;;;;;;5054445;28;20477;-81
2020/12/12 02:26:50;;;;;;;37.15;22.25;;;2.70;97.10;;;;;;5055627;28;20029;-83
2020/12/12 02:29:16;;;;;;;37.40;22.40;;;2.70;97.30;;;;;;5055488;28;20021;-82
2020/12/12 02:31:42;;;;;;;37.08;20.75;;;2.70;97.40;;;;;;5056682;28;20511;-83
2020/12/12 02:34:08;;;;;;;35.42;20.73;;;2.70;97.20;;;;;;5055300;28;20029;-82
2020/12/12 02:36:38;;;;;;;34.38;20.52;;;2.70;97.10;;;;;;5055357;28;20044;-82
2020/12/12 02:39:05;;;;;;;36.17;21.90;;;2.80;97.00;;;;;;5055287;28;20048;-83
2020/12/12 02:41:31;;;;;;;34.95;20.92;;;2.80;97.10;;;;;;5056321;28;20079;-81
2020/12/12 02:43:57;;;;;;;36.00;20.95;;;2.90;97.20;;;;;;5056500;28;20025;-81
2020/12/12 02:46:23;;;;;;;37.45;21.60;;;2.80;97.10;;;;;;5054974;28;20456;-83
2020/12/12 02:48:50;;;;;;;38.42;22.02;;;2.70;96.90;;;;;;5055204;28;20039;-82
2020/12/12 02:51:18;;;;;;;36.97;20.98;;;2.80;96.90;;;;;;5055307;28;20029;-82
2020/12/12 02:53:45;;;;;;;37.10;20.88;;;2.80;97.00;;;;;;5055193;28;20488;-82
2020/12/12 02:56:13;;;;;;;39.10;22.55;;;2.70;97.00;;;;;;5054924;28;20393;-85
2020/12/12 02:58:40;;;;;;;40.05;21.52;;;2.80;97.10;;;;;;5054923;28;20400;-82
2020/12/12 03:01:05;;;;;;;39.75;22.27;;;2.90;97.00;;;;;;5054853;28;20064;-82
2020/12/12 03:03:31;;;;;;;35.78;20.70;;;2.80;96.70;;;;;;5054793;28;20039;-82
2020/12/12 03:05:57;;;;;;;38.67;22.42;;;2.80;96.90;;;;;;5054783;28;20021;-84
2020/12/12 03:08:22;;;;;;;41.22;23.10;;;2.80;97.10;;;;;;5053672;28;20032;-81
2020/12/12 03:10:48;;;;;;;39.42;22.30;;;3.00;96.90;;;;;;5054822;28;20048;-83
2020/12/12 03:13:14;;;;;;;38.92;22.75;;;2.80;96.90;;;;;;5054620;28;20036;-84
2020/12/12 03:15:39;;;;;;;36.45;22.13;;;2.80;97.10;;;;;;5054711;28;20060;-83
2020/12/12 03:18:05;;;;;;;36.50;21.23;;;2.90;96.90;;;;;;5054686;28;20079;-82
2020/12/12 03:20:31;;;;;;;39.25;19.95;;;2.90;96.90;;;;;;5054308;28;20025;-82
2020/12/12 03:22:56;;;;;;;38.95;21.40;;;2.80;97.00;;;;;;5054510;28;20518;-84
2020/12/12 03:25:22;;;;;;;38.33;21.55;;;2.80;97.00;;;;;;5053670;28;20029;-82
2020/12/12 03:27:47;;;;;;;38.20;21.45;;;2.80;97.00;;;;;;5054146;28;20086;-84
2020/12/12 03:30:13;;;;;;;37.60;21.50;;;2.80;97.10;;;;;;5054219;28;20530;-81
2020/12/12 03:32:39;;;;;;;37.55;21.52;;;2.90;97.00;;;;;;5054127;28;20053;-82
2020/12/12 03:35:04;;;;;;;34.15;19.85;;;2.90;96.90;;;;;;5054280;28;20029;-82
2020/12/12 03:37:30;;;;;;;38.35;21.33;;;2.80;96.70;;;;;;5055070;28;20477;-81
2020/12/12 03:39:56;;;;;;;35.50;21.17;;;2.90;97.00;;;;;;5053844;28;20365;-83
2020/12/12 03:42:22;;;;;;;38.28;21.80;;;2.90;96.90;;;;;;5053950;28;20602;-83
2020/12/12 03:44:47;;;;;;;36.60;21.08;;;3.20;96.90;;;;;;5053701;28;20056;-82
2020/12/12 03:47:13;;;;;;;41.05;22.58;;;2.90;96.90;;;;;;5053807;28;20409;-82
2020/12/12 03:49:39;;;;;;;40.03;22.55;;;2.80;96.90;;;;;;5053603;28;20032;-82
2020/12/12 03:52:05;;;;;;;37.45;21.08;;;2.80;96.90;;;;;;5053280;28;20449;-83
2020/12/12 03:54:31;;;;;;;36.92;20.63;;;2.80;96.90;;;;;;5053843;28;20021;-83
2020/12/12 03:56:56;;;;;;;34.75;20.35;;;2.80;96.90;;;;;;5053505;28;20064;-82
2020/12/12 03:59:22;;;;;;;35.15;20.77;;;2.80;96.60;;;;;;5053354;28;20087;-82
2020/12/12 04:01:48;;;;;;;39.60;21.45;;;2.80;96.70;;;;;;5053497;28;20376;-84
2020/12/12 04:04:14;;;;;;;34.75;20.83;;;2.80;96.90;;;;;;5053459;28;20039;-82
2020/12/12 04:06:39;;;;;;;36.65;20.83;;;2.80;96.90;;;;;;5053574;28;20017;-83
2020/12/12 04:09:05;;;;;;;30.02;19.35;;;2.90;96.90;;;;;;5052704;28;20150;-82
2020/12/12 04:11:31;;;;;;;32.65;19.65;;;2.80;97.00;;;;;;5053043;28;20024;-82
2020/12/12 04:13:56;;;;;;;33.95;18.95;;;2.80;97.10;;;;;;5053568;28;20085;-82
2020/12/12 04:16:22;;;;;;;33.17;18.65;;;2.80;97.30;;;;;;5053323;28;20167;-83
2020/12/12 04:18:48;;;;;;;35.67;18.77;;;2.80;97.20;;;;;;5053089;28;20044;-82
2020/12/12 04:21:13;;;;;;;33.55;18.27;;;2.80;97.10;;;;;;5053565;28;20028;-82
2020/12/12 04:23:43;;;;;;;31.23;18.40;;;2.80;97.00;;;;;;5053470;28;20104;-84
2020/12/12 04:26:13;;;;;;;29.45;17.80;;;2.80;97.20;;;;;;5053376;28;20392;-81
2020/12/12 04:28:39;;;;;;;29.67;18.08;;;2.90;97.00;;;;;;5053202;28;20028;-83
2020/12/12 04:31:06;;;;;;;28.77;16.95;;;2.90;96.80;;;;;;5053310;28;20108;-82
2020/12/12 04:33:32;;;;;;;29.38;16.63;;;2.90;96.60;;;;;;5053266;28;20021;-82
2020/12/12 04:35:57;;;;;;;26.10;15.65;;;3.00;96.80;;;;;;5053338;28;20407;-82
2020/12/12 04:38:23;;;;;;;29.02;17.33;;;2.90;96.70;;;;;;5054096;28;20036;-83
2020/12/12 04:40:49;;;;;;;27.52;17.63;;;3.00;96.50;;;;;;5053175;28;20013;-82
2020/12/12 04:43:15;;;;;;;26.83;16.67;;;2.90;96.60;;;;;;5053399;28;20033;-84
2020/12/12 04:45:43;;;;;;;29.85;17.45;;;2.90;97.40;;;;;;5052811;28;20507;-85
2020/12/12 04:48:09;;;;;;;30.25;17.38;;;2.80;97.20;;;;;;5052876;28;20112;-82
2020/12/12 04:50:35;;;;;;;27.02;15.48;;;2.80;97.30;;;;;;5052970;28;20021;-81
2020/12/12 04:53:24;;;;;;;25.73;16.42;;;3.10;96.90;;;;;;5052727;28;20021;-84
2020/12/12 04:55:51;;;;;;;28.27;16.90;;;2.80;97.20;;;;;;5052771;28;20029;-83
2020/12/12 04:58:26;;;;;;;31.10;17.45;;;2.80;97.20;;;;;;5052580;28;20037;-83
2020/12/12 05:00:53;;;;;;;29.85;17.17;;;2.80;97.60;;;;;;5052958;28;20024;-84
2020/12/12 05:03:21;;;;;;;32.08;17.92;;;2.80;97.80;;;;;;5052603;28;20017;-83
2020/12/12 05:05:47;;;;;;;34.63;18.60;;;2.70;97.70;;;;;;5052920;28;20025;-82
2020/12/12 05:08:14;;;;;;;31.00;17.73;;;2.70;97.80;;;;;;5052543;28;20029;-81
2020/12/12 05:10:45;;;;;;;33.25;18.05;;;2.70;97.90;;;;;;5052561;28;20028;-83
2020/12/12 05:13:16;;;;;;;32.83;17.52;;;2.70;98.10;;;;;;5052394;28;20032;-83
2020/12/12 05:15:42;;;;;;;31.23;17.88;;;2.70;98.30;;;;;;5053487;28;20031;-82
2020/12/12 05:18:08;;;;;;;32.75;18.30;;;2.70;98.30;;;;;;5053249;28;20388;-82
2020/12/12 05:20:34;;;;;;;30.17;17.85;;;2.70;98.30;;;;;;5053437;28;20112;-82
2020/12/12 05:23:00;;;;;;;34.70;18.63;;;2.80;98.20;;;;;;5051997;28;20013;-82
2020/12/12 05:25:27;;;;;;;30.13;17.83;;;2.70;98.50;;;;;;5052292;28;20383;-82
2020/12/12 05:27:54;;;;;;;31.15;17.92;;;2.70;98.40;;;;;;5052276;28;20438;-81
2020/12/12 05:30:20;;;;;;;32.70;18.20;;;2.70;98.50;;;;;;5053713;28;20078;-81
2020/12/12 05:32:47;;;;;;;32.75;17.30;;;2.80;98.40;;;;;;5056123;28;20078;-82
2020/12/12 05:35:13;;;;;;;31.77;16.58;;;2.80;98.60;;;;;;5056168;28;20025;-82
2020/12/12 05:37:40;;;;;;;33.42;17.80;;;2.70;98.20;;;;;;5056138;28;20121;-82
2020/12/12 05:40:06;;;;;;;32.45;18.60;;;2.70;98.20;;;;;;5056008;28;20086;-83
2020/12/12 05:42:34;;;;;;;35.22;18.05;;;2.70;98.30;;;;;;5056452;28;20021;-82
2020/12/12 05:45:00;;;;;;;33.08;18.23;;;2.70;98.60;;;;;;5056234;28;20032;-84
2020/12/12 05:47:26;;;;;;;40.47;19.85;;;2.70;98.50;;;;;;5055988;28;20041;-83
2020/12/12 05:49:51;;;;;;;37.90;18.85;;;2.80;98.40;;;;;;5055644;28;20028;-82
2020/12/12 05:52:17;;;;;;;35.85;18.73;;;2.70;98.40;;;;;;5055931;28;20087;-82
2020/12/12 05:54:43;;;;;;;36.33;19.30;;;2.80;98.00;;;;;;5055442;28;20025;-82
2020/12/12 05:57:11;;;;;;;37.55;20.02;;;2.80;98.30;;;;;;5055232;28;20025;-82
2020/12/12 05:59:38;;;;;;;43.38;21.33;;;2.80;98.40;;;;;;5057011;28;20420;-81
2020/12/12 06:02:05;;;;;;;37.88;19.05;;;2.80;98.40;;;;;;5055755;28;20048;-82
2020/12/12 06:04:35;;;;;;;48.35;20.65;;;2.70;98.10;;;;;;5055823;28;20025;-82
2020/12/12 06:07:06;;;;;;;43.90;20.67;;;2.70;98.30;;;;;;5056747;28;20074;-82
2020/12/12 06:09:37;;;;;;;41.53;20.23;;;2.70;98.40;;;;;;5055380;28;20120;-83
2020/12/12 06:12:04;;;;;;;45.40;21.30;;;2.70;98.60;;;;;;5055619;28;20064;-81
2020/12/12 06:14:36;;;;;;;40.15;20.45;;;2.70;98.50;;;;;;5055623;28;20025;-82
2020/12/12 06:17:10;;;;;;;40.38;20.05;;;2.70;98.50;;;;;;5056829;28;20035;-83
2020/12/12 06:19:39;;;;;;;43.30;21.00;;;2.70;98.70;;;;;;5055514;28;20178;-82
2020/12/12 06:22:04;;;;;;;38.33;20.00;;;2.70;98.60;;;;;;5055665;28;20021;-81
2020/12/12 06:24:33;;;;;;;37.28;19.30;;;2.80;98.60;;;;;;5055477;28;20040;-81
2020/12/12 06:27:11;;;;;;;33.47;17.15;;;2.70;98.20;;;;;;5055443;28;20423;-83
2020/12/12 06:29:47;;;;;;;38.10;17.88;;;2.80;97.80;;;;;;5057262;28;20115;-84
2020/12/12 06:32:17;;;;;;;32.13;17.40;;;2.70;97.90;;;;;;5056035;28;20017;-87
2020/12/12 06:34:52;;;;;;;30.73;16.52;;;3.30;99.90;;;;;;5059231;28;20025;-87
2020/12/12 06:37:28;;;;;;;30.20;16.70;;;3.20;99.90;;;;;;5043842;28;20060;-82
2020/12/12 06:39:55;;;;;;;32.92;16.10;;;3.10;98.90;;;;;;5055117;28;20092;-82
2020/12/12 06:42:50;;;;;;;30.90;16.45;;;3.00;98.00;;;;;;5054585;28;20029;-81
2020/12/12 06:45:15;;;;;;;33.80;17.05;;;2.90;98.00;;;;;;5042124;28;20033;-83
2020/12/12 06:47:44;;;;;;;32.70;16.85;;;2.90;98.30;;;;;;5055949;28;20088;-84
2020/12/12 06:50:21;;;;;;;29.52;16.70;;;2.80;98.40;;;;;;5054945;28;20028;-84
2020/12/12 06:52:50;;;;;;;33.10;16.25;;;2.90;98.40;;;;;;5054493;28;20100;-82
2020/12/12 06:55:18;;;;;;;30.90;16.42;;;2.80;98.60;;;;;;5054836;28;20120;-83
2020/12/12 06:57:46;;;;;;;33.03;16.27;;;2.90;98.80;;;;;;5054202;28;20057;-83
2020/12/12 07:00:32;;;;;;;30.52;15.82;;;2.80;98.70;;;;;;5054592;28;20021;-83
2020/12/12 07:03:08;;;;;;;33.30;17.27;;;2.80;98.70;;;;;;5054584;28;20021;-81
2020/12/12 07:05:35;;;;;;;41.03;25.95;;;2.80;98.80;;;;;;5055541;28;20028;-81
2020/12/12 07:08:09;;;;;;;29.63;17.17;;;2.80;98.80;;;;;;5054409;28;20484;-81
2020/12/12 07:10:37;;;;;;;33.67;18.30;;;2.80;98.60;;;;;;5054150;28;20025;-82
2020/12/12 07:13:04;;;;;;;47.40;32.75;;;2.80;98.50;;;;;;5054166;28;20025;-82
2020/12/12 07:15:35;;;;;;;51.45;40.10;;;2.70;98.40;;;;;;5054188;28;20052;-81
2020/12/12 07:18:12;;;;;;;40.13;30.92;;;2.80;98.40;;;;;;5055534;28;20075;-82
2020/12/12 07:20:40;;;;;;;32.15;20.13;;;2.80;98.50;;;;;;5054343;28;20025;-83
2020/12/12 07:23:06;;;;;;;24.48;15.07;;;2.80;98.50;;;;;;5054522;28;20017;-82
2020/12/12 07:25:34;;;;;;;31.25;18.92;;;2.80;98.20;;;;;;5055479;28;20085;-82
2020/12/12 07:28:04;;;;;;;28.75;15.43;;;2.80;98.40;;;;;;5054457;28;20021;-84
2020/12/12 07:30:30;;;;;;;30.10;16.27;;;2.90;98.40;;;;;;5054256;28;20024;-83
2020/12/12 07:32:56;;;;;;;27.17;15.65;;;2.80;98.40;;;;;;5054232;28;20483;-82
2020/12/12 07:35:22;;;;;;;27.48;14.77;;;2.80;98.40;;;;;;5054368;28;20029;-83
2020/12/12 07:37:48;;;;;;;28.67;15.77;;;2.80;98.30;;;;;;5054031;28;20037;-84
2020/12/12 07:40:13;;;;;;;27.02;15.23;;;2.80;98.20;;;;;;5054134;28;20032;-82
2020/12/12 07:42:39;;;;;;;28.02;15.73;;;2.80;98.30;;;;;;5052955;28;20060;-82
2020/12/12 07:45:26;;;;;;;26.30;16.67;;;2.80;98.50;;;;;;5054077;28;20025;-82
2020/12/12 07:48:03;;;;;;;28.02;15.23;;;2.80;98.30;;;;;;5053860;28;20025;-83
2020/12/12 07:50:29;;;;;;;24.80;14.80;;;2.80;98.10;;;;;;5054023;28;20071;-82
2020/12/12 07:52:55;;;;;;;26.20;14.05;;;2.80;98.40;;;;;;5054571;28;20021;-81
2020/12/12 07:55:23;;;;;;;25.52;14.02;;;2.80;98.30;;;;;;5053930;28;20112;-81
2020/12/12 07:57:53;;;;;;;22.42;13.82;;;2.90;98.30;;;;;;5053328;28;20354;-81
2020/12/12 08:00:19;;;;;;;23.95;13.30;;;2.90;98.20;;;;;;5053884;28;20086;-83
2020/12/12 08:02:46;;;;;;;22.20;12.50;;;2.90;98.20;;;;;;5052887;28;20024;-81
2020/12/12 08:05:11;;;;;;;24.27;13.32;;;3.00;98.10;;;;;;5053574;28;20025;-81
2020/12/12 08:07:37;;;;;;;26.20;14.10;;;3.00;98.00;;;;;;5053404;28;20493;-85
2020/12/12 08:10:05;;;;;;;22.48;13.85;;;3.00;97.90;;;;;;5053522;28;20484;-84
2020/12/12 08:12:33;;;;;;;18.77;11.85;;;3.10;97.60;;;;;;5053297;28;20040;-81
2020/12/12 08:15:10;;;;;;;18.63;11.82;;;3.20;97.10;;;;;;5053438;28;20024;-82
2020/12/12 08:17:35;;;;;;;21.05;12.75;;;3.10;97.10;;;;;;5053277;28;20122;-82
2020/12/12 08:20:03;;;;;;;19.90;12.60;;;3.10;97.20;;;;;;5053417;28;20049;-83
2020/12/12 08:22:30;;;;;;;21.38;12.85;;;3.20;97.30;;;;;;5053180;28;20024;-82
2020/12/12 08:24:57;;;;;;;24.95;13.52;;;3.10;97.20;;;;;;5053364;28;20031;-81
2020/12/12 08:27:27;;;;;;;22.25;12.60;;;3.30;97.30;;;;;;5053085;28;20032;-82
2020/12/12 08:29:57;;;;;;;22.15;12.13;;;3.20;97.30;;;;;;5053113;28;20116;-81
2020/12/12 08:32:29;;;;;;;22.67;12.40;;;3.20;97.30;;;;;;5052948;28;20457;-84
2020/12/12 08:35:13;;;;;;;22.08;13.50;;;3.20;97.30;;;;;;5053565;28;20384;-86
2020/12/12 08:37:39;;;;;;;23.63;15.70;;;3.20;97.60;;;;;;5053692;28;20021;-84
2020/12/12 08:40:07;;;;;;;23.17;14.50;;;3.20;97.50;;;;;;5053872;28;20538;-83
2020/12/12 08:42:33;;;;;;;23.05;15.88;;;3.20;97.20;;;;;;5053936;28;20032;-85
2020/12/12 08:45:15;;;;;;;27.13;14.95;;;3.10;97.40;;;;;;5053926;28;20029;-86
2020/12/12 08:47:41;;;;;;;16.92;11.57;;;3.30;97.20;;;;;;5053485;28;20041;-83
2020/12/12 08:50:07;;;;;;;19.27;12.63;;;3.50;97.00;;;;;;5053384;28;20428;-83
2020/12/12 08:52:32;;;;;;;22.48;12.32;;;3.40;96.80;;;;;;5052981;28;20479;-84
2020/12/12 08:54:59;;;;;;;19.00;12.80;;;3.30;96.80;;;;;;5052901;28;20119;-82
2020/12/12 08:57:25;;;;;;;24.50;15.65;;;3.30;96.70;;;;;;5052713;28;20068;-83
2020/12/12 09:00:02;;;;;;;19.02;12.27;;;3.30;96.90;;;;;;5052985;28;20060;-81
2020/12/12 09:02:28;;;;;;;19.95;12.18;;;3.40;96.80;;;;;;5052595;28;20029;-81
2020/12/12 09:05:10;;;;;;;57.72;38.55;;;3.30;96.50;;;;;;5052473;28;20527;-83
2020/12/12 09:07:37;;;;;;;79.05;49.80;;;3.30;96.80;;;;;;5057049;28;20481;-82
2020/12/12 09:10:10;;;;;;;26.23;17.75;;;3.30;97.00;;;;;;5056586;28;20029;-82
2020/12/12 09:12:46;;;;;;;23.80;15.45;;;3.30;96.80;;;;;;5056880;28;20523;-84
2020/12/12 09:15:13;;;;;;;21.20;14.68;;;3.40;96.80;;;;;;5056952;28;20495;-81
2020/12/12 09:17:39;;;;;;;20.95;13.88;;;3.30;97.10;;;;;;5056671;28;20029;-82
2020/12/12 09:20:07;;;;;;;26.80;13.80;;;3.60;97.00;;;;;;5056942;28;20075;-80
2020/12/12 09:22:33;;;;;;;18.83;12.98;;;3.30;97.00;;;;;;5055668;28;20036;-81
2020/12/12 09:24:58;;;;;;;20.40;12.40;;;3.30;96.40;;;;;;5055842;28;20115;-79
2020/12/12 09:27:24;;;;;;;20.63;12.48;;;3.20;96.80;;;;;;5054862;28;20108;-78
2020/12/12 09:29:50;;;;;;;24.23;11.82;;;3.20;97.10;;;;;;5055074;28;20025;-81
2020/12/12 09:32:15;;;;;;;21.88;11.88;;;3.30;96.70;;;;;;5055100;28;20032;-82
2020/12/12 09:34:41;;;;;;;22.92;12.73;;;3.30;96.90;;;;;;5054918;28;20029;-83
2020/12/12 09:37:06;;;;;;;20.27;12.90;;;3.30;97.30;;;;;;5054973;28;20029;-81
2020/12/12 09:39:32;;;;;;;40.80;31.30;;;3.30;97.50;;;;;;5054632;28;20041;-79
2020/12/12 09:41:58;;;;;;;23.95;16.15;;;3.20;97.00;;;;;;5054872;28;20078;-79
2020/12/12 09:44:25;;;;;;;21.15;12.05;;;3.30;97.00;;;;;;5054919;28;20111;-79
2020/12/12 09:46:50;;;;;;;22.50;15.63;;;3.40;97.00;;;;;;5056073;28;20051;-80
2020/12/12 09:49:16;;;;;;;23.00;14.02;;;4.20;99.90;;;;;;5054253;28;20021;-79
2020/12/12 09:51:45;;;;;;;18.40;12.02;;;4.10;99.90;;;;;;5054118;28;20372;-79
2020/12/12 09:54:11;;;;;;;19.05;11.93;;;4.00;99.30;;;;;;5053328;28;20069;-79
2020/12/12 09:56:37;;;;;;;22.58;10.55;;;3.80;96.60;;;;;;5054185;28;20020;-80
2020/12/12 09:59:03;;;;;;;15.93;9.73;;;3.70;95.80;;;;;;5053919;28;20496;-79
2020/12/12 10:01:29;;;;;;;20.27;11.30;;;3.70;95.20;;;;;;5054004;28;20056;-80
2020/12/12 10:03:54;;;;;;;19.17;11.80;;;3.80;95.80;;;;;;5054012;28;20028;-80
2020/12/12 10:06:20;;;;;;;19.48;10.98;;;3.60;95.80;;;;;;5053855;28;20064;-78
2020/12/12 10:08:46;;;;;;;17.50;10.38;;;3.60;95.10;;;;;;5053875;28;20021;-80
2020/12/12 10:11:12;;;;;;;19.85;11.40;;;3.70;94.80;;;;;;5053781;28;20506;-80
2020/12/12 10:13:37;;;;;;;15.27;9.02;;;3.80;94.90;;;;;;5053794;28;20373;-80
2020/12/12 10:16:03;;;;;;;12.20;7.80;;;3.70;95.30;;;;;;5053187;28;20461;-80
2020/12/12 10:18:29;;;;;;;50.72;38.47;;;4.20;99.90;;;;;;5053377;28;20040;-80
2020/12/12 10:20:55;;;;;;;58.53;44.05;;;4.30;96.00;;;;;;5054987;28;20029;-81
2020/12/12 10:23:22;;;;;;;49.45;39.75;;;4.10;94.90;;;;;;5055085;28;20036;-86
2020/12/12 10:25:48;;;;;;;22.25;17.95;;;4.20;95.10;;;;;;5064409;28;20067;-85
2020/12/12 10:28:14;;;;;;;12.73;8.25;;;4.20;94.30;;;;;;5075572;28;20029;-82
2020/12/12 10:30:39;;;;;;;11.70;7.70;;;4.10;94.00;;;;;;5075409;28;20040;-82
2020/12/12 10:33:05;;;;;;;13.90;8.52;;;4.20;94.10;;;;;;5075497;28;20067;-82
2020/12/12 10:35:31;;;;;;;10.18;7.10;;;4.00;94.40;;;;;;5074061;28;20094;-80
2020/12/12 10:37:58;;;;;;;11.18;7.60;;;4.00;94.00;;;;;;5074162;28;20036;-79
2020/12/12 10:40:31;;;;;;;11.50;7.22;;;4.30;94.30;;;;;;5074266;28;20097;-81
2020/12/12 10:42:56;;;;;;;13.95;7.40;;;4.40;94.50;;;;;;5074826;28;20017;-81
2020/12/12 10:45:22;;;;;;;13.25;7.88;;;4.30;94.50;;;;;;5073653;28;20048;-79
2020/12/12 10:47:48;;;;;;;12.25;7.38;;;4.30;93.80;;;;;;5073301;28;20032;-76
2020/12/12 10:50:13;;;;;;;29.02;15.50;;;4.10;94.40;;;;;;5073677;28;20407;-81
2020/12/12 10:52:40;;;;;;;14.18;8.88;;;4.30;99.90;;;;;;5073533;28;20021;-80
2020/12/12 10:55:06;;;;;;;11.02;7.53;;;4.70;96.90;;;;;;5073934;28;20108;-81
2020/12/12 10:57:32;;;;;;;11.20;7.45;;;4.70;93.20;;;;;;5073761;28;20124;-81
2020/12/12 10:59:59;;;;;;;10.50;6.93;;;4.90;98.10;;;;;;5073065;28;20028;-82
2020/12/12 11:02:28;;;;;;;12.10;7.95;;;4.90;91.60;;;;;;5073423;28;20048;-79
2020/12/12 11:04:54;;;;;;;14.48;8.15;;;4.70;91.90;;;;;;5073604;28;20033;-80
2020/12/12 11:07:20;;;;;;;19.98;13.00;;;4.50;92.90;;;;;;5073832;28;20425;-80
2020/12/12 11:09:46;;;;;;;26.77;16.85;;;4.40;93.60;;;;;;5073584;28;20157;-83
2020/12/12 11:12:13;;;;;;;17.00;10.45;;;4.60;93.80;;;;;;5074502;28;20021;-80
2020/12/12 11:14:39;;;;;;;14.60;8.23;;;4.50;93.60;;;;;;5073165;28;20378;-82
2020/12/12 11:17:05;;;;;;;21.35;11.77;;;4.40;93.30;;;;;;5074622;28;20028;-81
2020/12/12 11:19:30;;;;;;;15.27;9.25;;;4.80;94.00;;;;;;5074651;28;20553;-81
2020/12/12 11:21:56;;;;;;;13.40;8.88;;;4.50;93.80;;;;;;5074782;28;20020;-81
2020/12/12 11:24:23;;;;;;;13.95;9.40;;;4.60;93.00;;;;;;5074963;28;20032;-83
2020/12/12 11:26:51;;;;;;;11.93;6.95;;;4.60;94.00;;;;;;5075913;28;20024;-81
2020/12/12 11:29:17;;;;;;;12.40;7.55;;;4.60;92.90;;;;;;5075378;28;20025;-82
2020/12/12 11:31:48;;;;;;;11.98;8.00;;;4.60;92.50;;;;;;5074959;28;20056;-82
2020/12/12 11:34:28;;;;;;;10.18;6.88;;;4.80;92.50;;;;;;5076360;28;20044;-79
2020/12/12 11:37:07;;;;;;;11.13;7.82;;;4.70;92.80;;;;;;5075159;28;20024;-81
2020/12/12 11:47:02;;;;;;;14.73;7.63;;;4.70;91.80;;;;;;5075972;28;20055;-81
2020/12/12 11:49:30;;;;;;;11.20;8.45;;;4.60;92.00;;;;;;5076486;28;20261;-81
2020/12/12 11:51:56;;;;;;;9.70;5.93;;;4.50;92.90;;;;;;5075496;28;20029;-81
2020/12/12 11:54:22;;;;;;;10.55;5.57;;;4.40;92.10;;;;;;5076701;28;20468;-81
2020/12/12 11:56:47;;;;;;;8.77;6.38;;;4.70;92.70;;;;;;5077696;28;20036;-81
2020/12/12 11:59:15;;;;;;;10.50;6.40;;;4.50;92.60;;;;;;5076743;28;20388;-81
2020/12/12 12:01:40;;;;;;;10.20;7.07;;;4.50;92.10;;;;;;5074555;28;20021;-82
2020/12/12 12:04:06;;;;;;;13.00;9.38;;;4.40;93.00;;;;;;5073879;28;20032;-81
2020/12/12 12:06:32;;;;;;;10.15;6.82;;;4.30;92.90;;;;;;5077238;28;20043;-80
2020/12/12 12:11:31;;;;;;;15.07;9.48;;;4.40;92.90;;;;;;5078540;28;20021;-81
2020/12/12 12:14:02;;;;;;;11.85;8.63;;;4.40;93.10;;;;;;5078165;28;20420;-80
2020/12/12 12:16:35;;;;;;;9.05;6.30;;;4.40;93.00;;;;;;5076624;28;20052;-83
2020/12/12 12:19:11;;;;;;;11.20;6.75;;;4.40;92.80;;;;;;5073353;28;20044;-82
2020/12/12 12:21:38;;;;;;;11.48;7.50;;;4.30;93.00;;;;;;5074053;28;20086;-81
2020/12/12 12:24:05;;;;;;;15.27;10.23;;;4.30;92.40;;;;;;5077093;28;20020;-81
2020/12/12 12:26:35;;;;;;;12.65;8.35;;;4.40;92.30;;;;;;5078967;28;20016;-81
2020/12/12 12:29:12;;;;;;;11.77;7.68;;;4.30;92.60;;;;;;5079130;28;20032;-81
2020/12/12 12:31:42;;;;;;;12.70;7.72;;;4.10;92.90;;;;;;5079300;28;20028;-82
2020/12/12 12:34:08;;;;;;;13.90;10.05;;;4.00;93.60;;;;;;5077756;28;20037;-82
2020/12/12 12:36:38;;;;;;;12.48;7.70;;;3.90;93.60;;;;;;5078252;28;20066;-81
2020/12/12 12:39:07;;;;;;;10.52;7.40;;;4.00;93.90;;;;;;5078811;28;20028;-82
2020/12/12 12:41:33;;;;;;;12.35;7.45;;;4.70;93.80;;;;;;5076810;28;20028;-83
2020/12/12 12:44:03;;;;;;;17.25;10.55;;;4.30;93.60;;;;;;5074516;28;20037;-81
2020/12/12 12:46:30;;;;;;;13.23;9.45;;;4.00;93.40;;;;;;5074292;28;20076;-81
2020/12/12 12:48:56;;;;;;;10.40;7.53;;;4.00;93.70;;;;;;5073970;28;20024;-83